createdAt,value
2022-09-15T00:00:24.524Z,101425.78
2022-09-15T00:02:52.779Z,101430.06
2022-09-15T00:05:21.123Z,101432.66
2022-09-15T00:07:49.193Z,101436.16
2022-09-15T00:10:18.817Z,101431.78
2022-09-15T00:12:46.921Z,101424.88
2022-09-15T00:15:17.013Z,101421.34
2022-09-15T00:17:50.019Z,101435.97
2022-09-15T00:20:19.254Z,101433.34
2022-09-15T00:22:47.476Z,101434.19
2022-09-15T00:25:16.497Z,101434.13
2022-09-15T00:27:45.998Z,101428.91
2022-09-15T00:30:14.239Z,101434.03
2022-09-15T00:32:42.370Z,101431.34
2022-09-15T00:35:10.657Z,101431.28
2022-09-15T00:37:38.708Z,101432.94
2022-09-15T00:40:07.719Z,101433.72
2022-09-15T00:42:35.762Z,101437.16
2022-09-15T00:45:05.807Z,101424.19
2022-09-15T00:47:38.289Z,101432.81
2022-09-15T00:50:09.954Z,101428.53
2022-09-15T00:52:45.589Z,101437.13
2022-09-15T00:55:18.085Z,101433.69
2022-09-15T00:57:50.818Z,101432.81
2022-09-15T01:00:23.221Z,101436.28
2022-09-15T01:02:52.047Z,101436.28
2022-09-15T01:05:23.735Z,101433.72
2022-09-15T01:07:56.608Z,101430.28
2022-09-15T01:10:30.783Z,101435.41
2022-09-15T01:13:01.184Z,101427.63
2022-09-15T01:15:37.569Z,101438.03
2022-09-15T01:18:16.469Z,101431.13
2022-09-15T01:21:12.734Z,101430.28
2022-09-15T01:24:16.222Z,101429.38
2022-09-15T01:26:58.002Z,101434.56
2022-09-15T01:29:49.087Z,101436.25
2022-09-15T01:32:40.139Z,101430.16
2022-09-15T01:35:16.088Z,101439.66
2022-09-15T01:37:50.654Z,101442.09
2022-09-15T01:40:20.912Z,101445.50
2022-09-15T01:42:51.487Z,101444.59
2022-09-15T01:45:26.175Z,101448.84
2022-09-15T01:47:56.643Z,101447.94
2022-09-15T01:50:28.685Z,101447.03
2022-09-15T01:53:00.986Z,101441.00
2022-09-15T01:55:35.339Z,101440.09
2022-09-15T01:58:03.371Z,101438.41
2022-09-15T02:00:34.941Z,101430.66
2022-09-15T02:03:08.557Z,101428.06
2022-09-15T02:05:42.231Z,101437.50
2022-09-15T02:08:18.011Z,101438.31
2022-09-15T02:10:52.463Z,101434.81
2022-09-15T02:13:29.116Z,101445.25
2022-09-15T02:16:01.360Z,101437.50
2022-09-15T02:18:38.821Z,101426.25
2022-09-15T02:21:13.164Z,101438.34
2022-09-15T02:23:47.619Z,101444.44
2022-09-15T02:26:19.671Z,101437.50
2022-09-15T02:28:50.230Z,101437.50
2022-09-15T02:31:23.059Z,101444.44
2022-09-15T02:33:55.507Z,101445.28
2022-09-15T02:36:24.783Z,101453.94
2022-09-15T02:38:58.140Z,101446.97
2022-09-15T02:41:26.203Z,101446.19
2022-09-15T02:43:54.256Z,101448.72
2022-09-15T02:46:24.643Z,101453.03
2022-09-15T02:48:53.438Z,101445.25
2022-09-15T02:51:21.451Z,101448.69
2022-09-15T02:53:49.561Z,101448.63
2022-09-15T02:56:18.284Z,101442.59
2022-09-15T02:58:46.392Z,101445.13
2022-09-15T03:01:16.225Z,101453.69
2022-09-15T03:03:47.096Z,101451.88
2022-09-15T03:06:18.113Z,101445.69
2022-09-15T03:08:49.839Z,101449.00
2022-09-15T03:11:19.392Z,101443.63
2022-09-15T03:13:47.454Z,101440.03
2022-09-15T03:16:17.533Z,101445.88
2022-09-15T03:18:46.973Z,101455.25
2022-09-15T03:21:16.063Z,101455.16
2022-09-15T03:23:44.157Z,101451.56
2022-09-15T03:26:12.833Z,101451.44
2022-09-15T03:28:41.762Z,101449.63
2022-09-15T03:31:10.781Z,101453.88
2022-09-15T03:33:39.081Z,101451.13
2022-09-15T03:36:09.923Z,101457.13
2022-09-15T03:38:37.957Z,101461.38
2022-09-15T03:41:08.431Z,101465.59
2022-09-15T03:43:37.334Z,101467.25
2022-09-15T03:46:06.615Z,101472.41
2022-09-15T03:48:35.901Z,101473.16
2022-09-15T03:51:05.821Z,101467.06
2022-09-15T03:53:35.761Z,101477.38
2022-09-15T03:56:12.832Z,101473.84
2022-09-15T03:58:40.999Z,101476.41
2022-09-15T04:01:09.363Z,101472.91
2022-09-15T04:03:43.263Z,101484.13
2022-09-15T04:06:13.544Z,101485.88
2022-09-15T04:08:42.977Z,101490.22
2022-09-15T04:11:12.757Z,101491.97
2022-09-15T04:13:42.307Z,101487.63
2022-09-15T04:16:12.216Z,101483.28
2022-09-15T04:18:40.568Z,101495.25
2022-09-15T04:21:10.579Z,101498.56
2022-09-15T04:23:39.222Z,101506.28
2022-09-15T04:26:11.825Z,101509.63
2022-09-15T04:28:40.457Z,101506.06
2022-09-15T04:31:10.651Z,101515.47
2022-09-15T04:33:39.671Z,101519.72
2022-09-15T04:36:10.013Z,101517.13
2022-09-15T04:38:38.801Z,101520.50
2022-09-15T04:41:08.775Z,101516.91
2022-09-15T04:43:37.399Z,101517.81
2022-09-15T04:46:07.798Z,101509.16
2022-09-15T04:48:35.888Z,101515.13
2022-09-15T04:51:05.053Z,101508.16
2022-09-15T04:53:33.490Z,101513.31
2022-09-15T04:56:05.988Z,101513.25
2022-09-15T04:58:38.955Z,101512.41
2022-09-15T05:01:12.031Z,101521.97
2022-09-15T05:03:41.171Z,101525.53
2022-09-15T05:06:11.502Z,101523.91
2022-09-15T05:08:39.545Z,101531.78
2022-09-15T05:11:09.918Z,101525.81
2022-09-15T05:13:40.769Z,101524.97
2022-09-15T05:16:12.065Z,101521.47
2022-09-15T05:18:40.271Z,101518.88
2022-09-15T05:21:09.705Z,101523.06
2022-09-15T05:23:38.690Z,101520.38
2022-09-15T05:26:09.073Z,101541.09
2022-09-15T05:28:39.774Z,101531.69
2022-09-15T05:31:10.788Z,101533.47
2022-09-15T05:33:39.352Z,101534.34
2022-09-15T05:36:08.348Z,101533.47
2022-09-15T05:38:36.367Z,101531.81
2022-09-15T05:41:05.663Z,101529.34
2022-09-15T05:43:34.492Z,101533.66
2022-09-15T05:46:04.664Z,101534.63
2022-09-15T05:48:32.704Z,101540.72
2022-09-15T05:51:00.801Z,101535.56
2022-09-15T05:53:28.970Z,101529.44
2022-09-15T05:55:57.698Z,101531.97
2022-09-15T05:58:26.866Z,101533.66
2022-09-15T06:00:55.713Z,101531.00
2022-09-15T06:03:30.626Z,101541.34
2022-09-15T06:06:02.262Z,101532.78
2022-09-15T06:08:35.115Z,101537.13
2022-09-15T06:11:05.125Z,101540.69
2022-09-15T06:13:33.543Z,101546.84
2022-09-15T06:16:03.185Z,101546.97
2022-09-15T06:18:33.399Z,101547.91
2022-09-15T06:21:04.283Z,101546.28
2022-09-15T06:23:32.448Z,101558.47
2022-09-15T06:26:11.935Z,101562.00
2022-09-15T06:28:42.218Z,101562.03
2022-09-15T06:31:14.864Z,101567.31
2022-09-15T06:33:51.319Z,101563.91
2022-09-15T06:36:20.842Z,101569.16
2022-09-15T06:38:49.241Z,101577.03
2022-09-15T06:41:17.776Z,101572.84
2022-09-15T06:43:46.946Z,101573.88
2022-09-15T06:46:17.058Z,101578.34
2022-09-15T06:48:48.525Z,101580.97
2022-09-15T06:51:19.512Z,101570.75
2022-09-15T06:53:49.338Z,101573.50
2022-09-15T06:56:18.880Z,101572.66
2022-09-15T06:58:49.365Z,101577.13
2022-09-15T07:01:23.059Z,101578.13
2022-09-15T07:03:53.862Z,101570.50
2022-09-15T07:06:24.806Z,101579.25
2022-09-15T07:08:53.969Z,101566.47
2022-09-15T07:11:22.014Z,101581.28
2022-09-15T07:13:50.256Z,101576.25
2022-09-15T07:16:19.854Z,101572.88
2022-09-15T07:18:48.360Z,101581.72
2022-09-15T07:21:19.977Z,101582.72
2022-09-15T07:23:49.074Z,101576.72
2022-09-15T07:26:19.729Z,101578.66
2022-09-15T07:28:50.012Z,101584.84
2022-09-15T07:31:20.720Z,101577.88
2022-09-15T07:33:49.157Z,101587.44
2022-09-15T07:36:19.048Z,101582.53
2022-09-15T07:38:49.387Z,101592.91
2022-09-15T07:41:19.860Z,101589.53
2022-09-15T07:43:48.745Z,101592.38
2022-09-15T07:46:17.479Z,101600.47
2022-09-15T07:48:46.398Z,101598.84
2022-09-15T07:51:15.212Z,101610.25
2022-09-15T07:53:45.789Z,101613.78
2022-09-15T07:56:18.574Z,101614.69
2022-09-15T07:58:46.953Z,101609.56
2022-09-15T08:01:16.600Z,101612.47
2022-09-15T08:03:46.700Z,101617.91
2022-09-15T08:06:14.907Z,101627.56
2022-09-15T08:08:45.167Z,101620.63
2022-09-15T08:11:18.519Z,101616.38
2022-09-15T08:13:47.435Z,101624.25
2022-09-15T08:16:18.144Z,101629.50
2022-09-15T08:18:47.507Z,101625.16
2022-09-15T08:21:17.373Z,101639.84
2022-09-15T08:23:51.056Z,101635.59
2022-09-15T08:26:19.310Z,101635.00
2022-09-15T08:28:47.500Z,101636.00
2022-09-15T08:31:16.349Z,101635.16
2022-09-15T08:33:49.645Z,101636.06
2022-09-15T08:36:17.758Z,101630.19
2022-09-15T08:38:47.762Z,101642.47
2022-09-15T08:41:20.446Z,101639.97
2022-09-15T08:43:56.125Z,101640.16
2022-09-15T08:46:30.923Z,101651.66
2022-09-15T08:49:04.721Z,101651.72
2022-09-15T08:51:40.770Z,101656.09
2022-09-15T08:54:17.126Z,101656.97
2022-09-15T08:56:45.799Z,101659.66
2022-09-15T08:59:16.058Z,101657.97
2022-09-15T09:01:50.193Z,101664.94
2022-09-15T09:04:44.542Z,101663.22
2022-09-15T09:07:28.674Z,101660.66
2022-09-15T09:10:09.291Z,101676.41
2022-09-15T09:12:52.616Z,101675.56
2022-09-15T09:15:36.436Z,101673.03
2022-09-15T09:18:22.603Z,101672.31
2022-09-15T09:21:00.356Z,101671.50
2022-09-15T09:23:33.097Z,101671.47
2022-09-15T09:26:05.484Z,101663.72
2022-09-15T09:28:41.415Z,101662.06
2022-09-15T09:31:19.790Z,101664.63
2022-09-15T09:33:53.424Z,101668.03
2022-09-15T09:36:21.947Z,101672.22
2022-09-15T09:38:51.527Z,101671.38
2022-09-15T09:41:26.180Z,101676.59
2022-09-15T09:43:56.943Z,101678.25
2022-09-15T09:46:25.231Z,101678.31
2022-09-15T09:48:56.412Z,101682.69
2022-09-15T09:51:34.056Z,101681.81
2022-09-15T09:54:09.525Z,101675.81
2022-09-15T09:56:39.275Z,101670.66
2022-09-15T09:59:27.499Z,101675.94
2022-09-15T10:02:13.385Z,101680.31
2022-09-15T10:04:43.325Z,101677.66
2022-09-15T10:07:12.501Z,101676.81
2022-09-15T10:09:41.589Z,101669.03
2022-09-15T10:12:37.357Z,101683.03
2022-09-15T10:15:08.955Z,101673.50
2022-09-15T10:17:43.791Z,101671.75
2022-09-15T10:20:28.495Z,101676.94
2022-09-15T10:23:04.948Z,101668.22
2022-09-15T10:25:57.555Z,101669.94
2022-09-15T10:28:27.311Z,101679.56
2022-09-15T10:31:05.006Z,101678.69
2022-09-15T10:33:35.505Z,101684.78
2022-09-15T10:36:07.086Z,101676.91
2022-09-15T10:38:44.750Z,101680.44
2022-09-15T10:41:23.714Z,101685.72
2022-09-15T10:44:21.330Z,101686.66
2022-09-15T10:46:59.243Z,101688.38
2022-09-15T10:49:45.851Z,101684.84
2022-09-15T10:52:22.233Z,101696.16
2022-09-15T10:55:08.449Z,101687.44
2022-09-15T10:57:52.760Z,101689.19
2022-09-15T11:00:24.175Z,101691.81
2022-09-15T11:03:19.832Z,101698.81
2022-09-15T11:06:02.437Z,101692.72
2022-09-15T11:08:43.730Z,101682.16
2022-09-15T11:11:18.904Z,101692.53
2022-09-15T11:14:04.862Z,101697.81
2022-09-15T11:16:50.279Z,101690.91
2022-09-15T11:19:37.110Z,101692.69
2022-09-15T11:22:10.340Z,101703.16
2022-09-15T11:24:45.833Z,101707.50
2022-09-15T11:27:22.404Z,101703.13
2022-09-15T11:30:02.972Z,101704.84
2022-09-15T11:32:39.612Z,101710.94
2022-09-15T11:35:38.702Z,101703.13
2022-09-15T11:38:19.820Z,101704.91
2022-09-15T11:40:52.096Z,101697.06
2022-09-15T11:43:29.053Z,101692.66
2022-09-15T11:45:59.020Z,101698.72
2022-09-15T11:48:33.446Z,101694.34
2022-09-15T11:51:04.337Z,101700.44
2022-09-15T11:53:36.913Z,101700.38
2022-09-15T11:56:16.044Z,101698.47
2022-09-15T11:59:03.846Z,101700.94
2022-09-15T12:01:38.683Z,101707.84
2022-09-15T12:04:13.940Z,101707.81
2022-09-15T12:06:48.221Z,101709.66
2022-09-15T12:09:18.904Z,101699.25
2022-09-15T12:11:49.198Z,101699.28
2022-09-15T12:14:22.937Z,101704.59
2022-09-15T12:16:51.880Z,101707.22
2022-09-15T12:19:38.588Z,101708.81
2022-09-15T12:22:13.672Z,101702.81
2022-09-15T12:24:46.483Z,101707.34
2022-09-15T12:27:17.729Z,101705.63
2022-09-15T12:29:50.895Z,101706.38
2022-09-15T12:32:26.830Z,101714.97
2022-09-15T12:35:13.333Z,101712.25
2022-09-15T12:37:45.257Z,101717.41
2022-09-15T12:40:33.622Z,101719.19
2022-09-15T12:43:03.199Z,101706.22
2022-09-15T12:45:36.087Z,101708.97
2022-09-15T12:48:08.302Z,101709.91
2022-09-15T12:50:43.461Z,101708.13
2022-09-15T12:53:20.075Z,101711.66
2022-09-15T12:55:51.401Z,101704.72
2022-09-15T12:58:27.665Z,101701.13
2022-09-15T13:01:34.136Z,101689.81
2022-09-15T13:04:29.020Z,101690.66
2022-09-15T13:07:34.813Z,101701.09
2022-09-15T13:10:28.152Z,101693.13
2022-09-15T13:13:09.080Z,101692.25
2022-09-15T13:15:42.186Z,101689.50
2022-09-15T13:18:13.496Z,101692.91
2022-09-15T13:20:54.998Z,101691.22
2022-09-15T13:23:28.235Z,101689.31
2022-09-15T13:25:59.174Z,101685.72
2022-09-15T13:28:28.452Z,101690.91
2022-09-15T13:31:09.212Z,101690.22
2022-09-15T13:40:34.810Z,101694.59
2022-09-15T13:43:24.351Z,101697.91
2022-09-15T13:46:05.968Z,101700.63
2022-09-15T13:48:58.913Z,101699.75
2022-09-15T13:51:30.687Z,101703.81
2022-09-15T13:54:01.773Z,101695.69
2022-09-15T13:56:35.753Z,101684.28
2022-09-15T13:59:14.076Z,101683.53
2022-09-15T14:01:44.633Z,101682.59
2022-09-15T14:04:16.645Z,101687.06
2022-09-15T14:06:46.870Z,101690.03
2022-09-15T14:09:19.810Z,101692.66
2022-09-15T14:11:53.162Z,101684.69
2022-09-15T14:14:34.454Z,101688.00
2022-09-15T14:17:02.584Z,101681.25
2022-09-15T14:19:34.457Z,101681.25
2022-09-15T14:22:04.614Z,101688.16
2022-09-15T14:24:33.293Z,101689.78
2022-09-15T14:27:10.223Z,101691.53
2022-09-15T14:29:41.956Z,101687.47
2022-09-15T14:32:14.747Z,101692.06
2022-09-15T14:34:44.486Z,101679.91
2022-09-15T14:37:24.045Z,101680.78
2022-09-15T14:39:56.615Z,101680.75
2022-09-15T14:42:31.290Z,101676.38
2022-09-15T14:48:02.355Z,101681.69
2022-09-15T14:50:33.708Z,101684.31
2022-09-15T14:53:05.633Z,101679.09
2022-09-15T14:55:38.828Z,101685.22
2022-09-15T14:58:21.378Z,101676.59
2022-09-15T15:00:56.210Z,101682.88
2022-09-15T15:03:34.545Z,101689.00
2022-09-15T15:06:28.363Z,101688.13
2022-09-15T15:09:03.252Z,101687.25
2022-09-15T15:11:34.325Z,101685.50
2022-09-15T15:14:07.056Z,101686.28
2022-09-15T15:16:35.765Z,101687.97
2022-09-15T15:19:04.510Z,101685.44
2022-09-15T15:21:39.249Z,101695.94
2022-09-15T15:24:20.046Z,101689.78
2022-09-15T15:26:51.110Z,101700.25
2022-09-15T15:29:44.244Z,101701.13
2022-09-15T15:32:14.755Z,101702.91
2022-09-15T15:34:50.001Z,101696.81
2022-09-15T15:37:26.454Z,101705.53
2022-09-15T15:39:56.038Z,101702.09
2022-09-15T15:42:25.856Z,101709.13
2022-09-15T15:45:04.047Z,101706.50
2022-09-15T15:47:34.118Z,101709.97
2022-09-15T15:50:13.769Z,101715.28
2022-09-15T15:52:42.477Z,101703.03
2022-09-15T15:55:15.301Z,101700.41
2022-09-15T15:57:44.027Z,101710.03
2022-09-15T16:00:21.496Z,101706.50
2022-09-15T16:02:50.677Z,101710.03
2022-09-15T16:05:20.679Z,101707.41
2022-09-15T16:07:50.756Z,101708.31
2022-09-15T16:10:21.485Z,101717.94
2022-09-15T16:12:50.115Z,101713.56
2022-09-15T16:15:22.774Z,101708.38
2022-09-15T16:17:51.316Z,101720.59
2022-09-15T16:20:20.462Z,101731.06
2022-09-15T16:22:49.558Z,101725.81
2022-09-15T16:25:32.169Z,101724.97
2022-09-15T16:28:01.143Z,101717.06
2022-09-15T16:30:30.806Z,101724.91
2022-09-15T16:32:59.340Z,101718.81
2022-09-15T16:35:34.284Z,101724.00
2022-09-15T16:38:02.311Z,101727.50
2022-09-15T16:40:30.575Z,101730.09
2022-09-15T16:42:59.551Z,101723.97
2022-09-15T16:45:36.512Z,101730.88
2022-09-15T16:48:07.997Z,101730.88
2022-09-15T16:50:39.806Z,101735.16
2022-09-15T16:53:15.303Z,101732.56
2022-09-15T16:55:46.765Z,101739.50
2022-09-15T16:58:16.459Z,101730.81
2022-09-15T17:00:48.410Z,101730.78
2022-09-15T17:03:19.267Z,101748.09
2022-09-15T17:05:50.099Z,101739.38
2022-09-15T17:08:19.840Z,101739.34
2022-09-15T17:10:49.005Z,101753.25
2022-09-15T17:13:19.695Z,101748.88
2022-09-15T17:15:50.824Z,101741.00
2022-09-15T17:18:19.412Z,101741.84
2022-09-15T17:20:48.979Z,101738.34
2022-09-15T17:23:23.510Z,101743.53
2022-09-15T17:25:53.538Z,101742.59
2022-09-15T17:28:23.587Z,101750.41
2022-09-15T17:30:54.664Z,101759.06
2022-09-15T17:33:22.806Z,101756.44
2022-09-15T17:35:51.694Z,101752.94
2022-09-15T17:38:21.822Z,101763.34
2022-09-15T17:40:50.577Z,101756.38
2022-09-15T17:43:25.558Z,101757.28
2022-09-15T18:01:40.233Z,101771.81
2022-09-15T18:04:10.936Z,101777.88
2022-09-15T18:06:42.244Z,101777.78
2022-09-15T18:09:14.947Z,101777.69
2022-09-15T18:11:43.301Z,101777.56
2022-09-15T18:14:12.342Z,101783.56
2022-09-15T18:16:42.705Z,101798.28
2022-09-15T18:19:11.200Z,101799.94
2022-09-15T18:21:40.587Z,101799.88
2022-09-15T18:24:10.912Z,101802.34
2022-09-15T18:26:50.464Z,101800.50
2022-09-15T18:29:24.278Z,101809.97
2022-09-15T18:31:54.436Z,101802.94
2022-09-15T18:34:26.131Z,101802.03
2022-09-15T18:36:54.424Z,101799.31
2022-09-15T18:39:22.641Z,101810.56
2022-09-15T18:41:51.049Z,101797.50
2022-09-15T18:44:19.594Z,101798.41
2022-09-15T18:46:47.985Z,101791.44
2022-09-15T18:49:17.800Z,101793.19
2022-09-15T18:51:51.736Z,101789.69
2022-09-15T18:54:20.299Z,101790.53
2022-09-15T18:56:48.503Z,101796.59
2022-09-15T18:59:17.813Z,101802.63
2022-09-15T19:01:46.468Z,101801.72
2022-09-15T19:04:15.176Z,101808.59
2022-09-15T19:06:47.514Z,101808.59
2022-09-15T19:09:19.572Z,101815.47
2022-09-15T19:12:04.073Z,101816.25
2022-09-15T19:14:35.870Z,101813.63
2022-09-15T19:17:11.167Z,101822.28
2022-09-15T19:19:43.790Z,101819.69
2022-09-15T19:22:21.318Z,101820.53
2022-09-15T19:24:54.399Z,101822.22
2022-09-15T19:28:18.177Z,101823.06
2022-09-15T19:30:45.616Z,101819.53
2022-09-15T19:33:14.529Z,101829.81
2022-09-15T19:35:53.266Z,101838.47
2022-09-15T19:38:48.264Z,101830.53
2022-09-15T19:41:41.435Z,101838.22
2022-09-15T19:44:23.798Z,101838.16
2022-09-15T19:46:55.554Z,101840.72
2022-09-15T19:50:02.937Z,101843.22
2022-09-15T19:52:42.157Z,101850.97
2022-09-15T19:55:44.017Z,101844.03
2022-09-15T19:58:12.039Z,101860.59
2022-09-15T20:00:47.886Z,101860.53
2022-09-15T20:03:20.381Z,101864.84
2022-09-15T20:05:52.734Z,101869.16
2022-09-15T20:08:21.801Z,101866.53
2022-09-15T20:10:53.885Z,101870.75
2022-09-15T20:13:22.167Z,101869.81
2022-09-15T20:16:05.677Z,101871.41
2022-09-15T20:18:36.797Z,101881.81
2022-09-15T20:21:07.920Z,101882.78
2022-09-15T20:23:50.583Z,101876.59
2022-09-15T20:26:23.929Z,101880.94
2022-09-15T20:29:14.610Z,101879.16
2022-09-15T20:31:43.982Z,101878.31
2022-09-15T20:34:16.811Z,101880.00
2022-09-15T20:36:45.345Z,101886.03
2022-09-15T20:39:22.469Z,101890.31
2022-09-15T20:41:59.817Z,101887.66
2022-09-15T20:44:29.349Z,101898.84
2022-09-15T20:46:57.936Z,101902.28
2022-09-15T20:49:26.410Z,101895.31
2022-09-15T20:51:54.769Z,101895.31
2022-09-15T20:54:24.537Z,101903.09
2022-09-15T20:57:01.433Z,101902.28
2022-09-15T20:59:31.564Z,101904.78
2022-09-15T21:02:00.611Z,101908.25
2022-09-15T21:04:29.457Z,101904.78
2022-09-15T21:06:58.214Z,101908.25
2022-09-15T21:09:26.627Z,101910.81
2022-09-15T21:12:00.266Z,101908.16
2022-09-15T21:14:32.025Z,101920.28
2022-09-15T21:17:03.307Z,101923.69
2022-09-15T21:19:32.481Z,101915.81
2022-09-15T21:22:01.785Z,101927.00
2022-09-15T21:24:30.190Z,101920.00
2022-09-15T21:27:17.287Z,101933.00
2022-09-15T21:29:45.778Z,101933.84
2022-09-15T21:32:19.265Z,101935.59
2022-09-15T21:34:48.064Z,101934.66
2022-09-15T21:37:19.095Z,101933.69
2022-09-15T21:39:47.553Z,101932.72
2022-09-15T21:42:17.664Z,101933.50
2022-09-15T21:44:51.513Z,101925.63
2022-09-15T21:47:20.523Z,101932.38
2022-09-15T21:49:58.807Z,101932.28
2022-09-15T21:52:27.498Z,101925.31
2022-09-15T21:54:55.976Z,101930.50
2022-09-15T21:57:26.234Z,101927.00
2022-09-15T21:59:54.281Z,101930.59
2022-09-15T22:02:24.015Z,101937.53
2022-09-15T22:04:52.992Z,101943.50
2022-09-15T22:07:21.871Z,101944.31
2022-09-15T22:09:54.471Z,101939.97
2022-09-15T22:12:26.123Z,101940.72
2022-09-15T22:14:54.621Z,101949.34
2022-09-15T22:17:23.179Z,101947.59
2022-09-15T22:20:00.752Z,101942.41
2022-09-15T22:22:31.157Z,101938.88
2022-09-15T22:25:12.343Z,101935.34
2022-09-15T22:27:44.411Z,101939.72
2022-09-15T22:30:18.850Z,101937.13
2022-09-15T22:32:48.811Z,101937.09
2022-09-15T22:35:17.633Z,101937.94
2022-09-15T22:37:47.695Z,101948.31
2022-09-15T22:40:18.132Z,101939.66
2022-09-15T22:42:49.025Z,101936.19
2022-09-15T22:45:18.203Z,101936.19
2022-09-15T22:47:49.145Z,101944.88
2022-09-15T22:50:20.386Z,101949.03
2022-09-15T22:52:49.182Z,101947.16
2022-09-15T22:55:17.871Z,101946.19
2022-09-15T22:57:49.607Z,101941.75
2022-09-15T23:00:22.462Z,101946.78
2022-09-15T23:02:56.398Z,101955.25
2022-09-15T23:05:27.921Z,101954.16
2022-09-15T23:07:56.217Z,101951.34
2022-09-15T23:10:26.846Z,101956.34
2022-09-15T23:12:59.022Z,101961.31
2022-09-15T23:15:27.710Z,101972.38
2022-09-15T23:17:57.916Z,101961.84
2022-09-15T23:20:27.241Z,101962.56
2022-09-15T23:23:09.215Z,101967.59
2022-09-15T23:25:37.549Z,101963.91
2022-09-15T23:28:11.623Z,101970.66
2022-09-15T23:30:42.690Z,101967.06
2022-09-15T23:33:18.137Z,101966.91
2022-09-15T23:35:47.898Z,101967.75
2022-09-15T23:38:19.209Z,101971.19
2022-09-15T23:40:50.065Z,101966.78
2022-09-15T23:43:23.927Z,101979.78
2022-09-15T23:45:52.283Z,101971.13
2022-09-15T23:48:47.153Z,101973.75
2022-09-15T23:51:15.451Z,101975.41
2022-09-15T23:53:45.289Z,101987.50
2022-09-15T23:56:14.105Z,101982.22
2022-09-15T23:58:45.563Z,101989.16
